sensor_id;sensor_type;location;lat;lon;timestamp;pressure;altitude;pressure_sealevel;temperature;humidity
14383;BME280;7275;50.328;8.720;2023-01-27T00:00:28;100173.22;;;8.57;51.13
14383;BME280;7275;50.328;8.720;2023-01-27T00:02:56;100167.94;;;8.57;51.12
14383;BME280;7275;50.328;8.720;2023-01-27T00:05:25;100173.19;;;8.59;50.81
14383;BME280;7275;50.328;8.720;2023-01-27T00:07:52;100176.72;;;8.59;50.99
14383;BME280;7275;50.328;8.720;2023-01-27T00:10:23;100178.47;;;8.59;50.97
14383;BME280;7275;50.328;8.720;2023-01-27T00:12:51;100173.16;;;8.60;51.08
14383;BME280;7275;50.328;8.720;2023-01-27T00:15:36;100176.72;;;8.58;50.95
14383;BME280;7275;50.328;8.720;2023-01-27T00:18:04;100175.84;;;8.59;51.05
14383;BME280;7275;50.328;8.720;2023-01-27T00:20:33;100174.03;;;8.61;51.18
14383;BME280;7275;50.328;8.720;2023-01-27T00:23:29;100171.41;;;8.61;51.16
14383;BME280;7275;50.328;8.720;2023-01-27T00:26:16;100177.53;;;8.61;50.98
14383;BME280;7275;50.328;8.720;2023-01-27T00:28:45;100174.03;;;8.61;51.21
14383;BME280;7275;50.328;8.720;2023-01-27T00:31:15;100169.59;;;8.63;51.05
14383;BME280;7275;50.328;8.720;2023-01-27T00:34:01;100166.13;;;8.61;50.97
14383;BME280;7275;50.328;8.720;2023-01-27T00:36:37;100165.25;;;8.60;50.96
14383;BME280;7275;50.328;8.720;2023-01-27T00:39:06;100160.91;;;8.59;51.14
14383;BME280;7275;50.328;8.720;2023-01-27T00:41:33;100166.19;;;8.59;51.01
14383;BME280;7275;50.328;8.720;2023-01-27T00:44:01;100166.13;;;8.61;50.85
14383;BME280;7275;50.328;8.720;2023-01-27T00:46:30;100164.44;;;8.58;51.07
14383;BME280;7275;50.328;8.720;2023-01-27T00:48:58;100165.31;;;8.57;50.95
14383;BME280;7275;50.328;8.720;2023-01-27T00:51:26;100168.03;;;8.54;50.96
14383;BME280;7275;50.328;8.720;2023-01-27T00:53:54;100168.91;;;8.53;51.33
14383;BME280;7275;50.328;8.720;2023-01-27T00:56:22;100171.53;;;8.55;51.33
14383;BME280;7275;50.328;8.720;2023-01-27T00:58:49;100162.72;;;8.56;51.26
14383;BME280;7275;50.328;8.720;2023-01-27T01:01:17;100169.75;;;8.55;51.23
14383;BME280;7275;50.328;8.720;2023-01-27T01:03:44;100168.03;;;8.54;51.22
14383;BME280;7275;50.328;8.720;2023-01-27T01:06:16;100174.13;;;8.56;51.21
14383;BME280;7275;50.328;8.720;2023-01-27T01:08:44;100174.13;;;8.56;51.06
14383;BME280;7275;50.328;8.720;2023-01-27T01:11:15;100175.00;;;8.57;51.26
14383;BME280;7275;50.328;8.720;2023-01-27T01:13:43;100178.53;;;8.56;51.26
14383;BME280;7275;50.328;8.720;2023-01-27T01:16:13;100177.66;;;8.55;51.40
14383;BME280;7275;50.328;8.720;2023-01-27T01:18:41;100181.16;;;8.56;51.35
14383;BME280;7275;50.328;8.720;2023-01-27T01:21:09;100188.19;;;8.55;51.54
14383;BME280;7275;50.328;8.720;2023-01-27T01:23:38;100190.81;;;8.55;51.51
14383;BME280;7275;50.328;8.720;2023-01-27T01:26:06;100196.09;;;8.55;51.48
14383;BME280;7275;50.328;8.720;2023-01-27T01:28:36;100190.81;;;8.55;51.47
14383;BME280;7275;50.328;8.720;2023-01-27T01:31:04;100189.91;;;8.58;51.55
14383;BME280;7275;50.328;8.720;2023-01-27T01:33:32;100189.00;;;8.59;51.49
14383;BME280;7275;50.328;8.720;2023-01-27T01:36:04;100192.47;;;8.61;51.41
14383;BME280;7275;50.328;8.720;2023-01-27T01:38:31;100192.44;;;8.62;51.45
14383;BME280;7275;50.328;8.720;2023-01-27T01:40:59;100196.88;;;8.60;51.49
14383;BME280;7275;50.328;8.720;2023-01-27T01:43:27;100191.59;;;8.60;51.32
14383;BME280;7275;50.328;8.720;2023-01-27T01:45:57;100186.34;;;8.60;51.50
14383;BME280;7275;50.328;8.720;2023-01-27T01:48:32;100186.38;;;8.59;51.33
14383;BME280;7275;50.328;8.720;2023-01-27T01:51:04;100184.63;;;8.59;51.34
14383;BME280;7275;50.328;8.720;2023-01-27T01:53:37;100182.88;;;8.58;51.40
14383;BME280;7275;50.328;8.720;2023-01-27T01:56:11;100184.63;;;8.58;51.54
14383;BME280;7275;50.328;8.720;2023-01-27T01:58:41;100184.63;;;8.59;51.36
14383;BME280;7275;50.328;8.720;2023-01-27T02:01:13;100182.88;;;8.58;51.26
14383;BME280;7275;50.328;8.720;2023-01-27T02:03:44;100188.09;;;8.61;51.34
14383;BME280;7275;50.328;8.720;2023-01-27T02:06:13;100176.63;;;8.62;51.51
14383;BME280;7275;50.328;8.720;2023-01-27T02:08:43;100178.38;;;8.63;51.52
14383;BME280;7275;50.328;8.720;2023-01-27T02:11:11;100173.94;;;8.64;51.34
14383;BME280;7275;50.328;8.720;2023-01-27T02:13:39;100175.69;;;8.65;51.51
14383;BME280;7275;50.328;8.720;2023-01-27T02:16:07;100175.66;;;8.66;51.39
14383;BME280;7275;50.328;8.720;2023-01-27T02:18:39;100181.84;;;8.65;51.37
14383;BME280;7275;50.328;8.720;2023-01-27T02:21:06;100179.22;;;8.65;51.32
14383;BME280;7275;50.328;8.720;2023-01-27T02:23:53;100188.84;;;8.66;51.43
14383;BME280;7275;50.328;8.720;2023-01-27T02:26:25;100182.69;;;8.67;51.26
14383;BME280;7275;50.328;8.720;2023-01-27T02:28:56;100178.25;;;8.68;51.71
14383;BME280;7275;50.328;8.720;2023-01-27T02:31:23;100180.88;;;8.68;51.30
14383;BME280;7275;50.328;8.720;2023-01-27T02:33:54;100180.03;;;8.67;51.31
14383;BME280;7275;50.328;8.720;2023-01-27T02:36:26;100180.88;;;8.68;51.58
14383;BME280;7275;50.328;8.720;2023-01-27T02:38:55;100190.53;;;8.69;51.46
14383;BME280;7275;50.328;8.720;2023-01-27T02:41:27;100181.75;;;8.68;51.22
14383;BME280;7275;50.328;8.720;2023-01-27T02:43:56;100184.44;;;8.67;51.55
14383;BME280;7275;50.328;8.720;2023-01-27T02:46:23;100187.94;;;8.67;51.36
14383;BME280;7275;50.328;8.720;2023-01-27T02:48:51;100187.03;;;8.68;51.33
14383;BME280;7275;50.328;8.720;2023-01-27T02:51:18;100186.16;;;8.69;51.34
14383;BME280;7275;50.328;8.720;2023-01-27T02:53:46;100187.00;;;8.70;51.35
14383;BME280;7275;50.328;8.720;2023-01-27T02:56:14;100186.09;;;8.71;51.21
14383;BME280;7275;50.328;8.720;2023-01-27T02:58:43;100186.06;;;8.72;51.34
14383;BME280;7275;50.328;8.720;2023-01-27T03:01:10;100184.31;;;8.73;51.57
14383;BME280;7275;50.328;8.720;2023-01-27T03:03:38;100185.13;;;8.75;51.37
14383;BME280;7275;50.328;8.720;2023-01-27T03:06:09;100194.72;;;8.79;51.33
14383;BME280;7275;50.328;8.720;2023-01-27T03:08:36;100192.03;;;8.80;51.36
14383;BME280;7275;50.328;8.720;2023-01-27T03:11:04;100197.28;;;8.82;51.24
14383;BME280;7275;50.328;8.720;2023-01-27T03:13:32;100203.38;;;8.84;51.31
14383;BME280;7275;50.328;8.720;2023-01-27T03:16:04;100199.88;;;8.83;51.29
14383;BME280;7275;50.328;8.720;2023-01-27T03:18:50;100209.56;;;8.83;51.29
14383;BME280;7275;50.328;8.720;2023-01-27T03:21:18;100204.38;;;8.80;51.20
14383;BME280;7275;50.328;8.720;2023-01-27T03:23:46;100211.44;;;8.78;51.54
14383;BME280;7275;50.328;8.720;2023-01-27T03:26:14;100202.69;;;8.76;51.23
14383;BME280;7275;50.328;8.720;2023-01-27T03:28:42;100204.47;;;8.75;51.18
14383;BME280;7275;50.328;8.720;2023-01-27T03:31:31;100204.41;;;8.77;51.32
14383;BME280;7275;50.328;8.720;2023-01-27T03:33:58;100204.38;;;8.78;51.46
14383;BME280;7275;50.328;8.720;2023-01-27T03:36:26;100206.97;;;8.81;51.20
14383;BME280;7275;50.328;8.720;2023-01-27T03:39:11;100204.31;;;8.81;51.49
14383;BME280;7275;50.328;8.720;2023-01-27T03:41:56;100212.22;;;8.81;51.55
14383;BME280;7275;50.328;8.720;2023-01-27T03:44:42;100208.75;;;8.79;51.51
14383;BME280;7275;50.328;8.720;2023-01-27T03:47:28;100210.53;;;8.79;51.39
14383;BME280;7275;50.328;8.720;2023-01-27T03:49:56;100209.63;;;8.80;51.42
14383;BME280;7275;50.328;8.720;2023-01-27T03:52:23;100207.00;;;8.78;51.14
14383;BME280;7275;50.328;8.720;2023-01-27T03:54:51;100214.91;;;8.80;51.20
14383;BME280;7275;50.328;8.720;2023-01-27T03:57:18;100218.38;;;8.80;51.10
14383;BME280;7275;50.328;8.720;2023-01-27T03:59:46;100212.16;;;8.84;51.43
14383;BME280;7275;50.328;8.720;2023-01-27T04:02:13;100208.69;;;8.82;51.47
14383;BME280;7275;50.328;8.720;2023-01-27T04:04:59;100213.09;;;8.82;51.30
14383;BME280;7275;50.328;8.720;2023-01-27T04:07:45;100212.22;;;8.81;51.28
14383;BME280;7275;50.328;8.720;2023-01-27T04:10:12;100210.44;;;8.83;51.57
14383;BME280;7275;50.328;8.720;2023-01-27T04:12:40;100215.63;;;8.86;51.15
14383;BME280;7275;50.328;8.720;2023-01-27T04:15:07;100220.88;;;8.88;51.10
14383;BME280;7275;50.328;8.720;2023-01-27T04:17:35;100215.63;;;8.86;51.42
14383;BME280;7275;50.328;8.720;2023-01-27T04:20:06;100209.50;;;8.86;51.29
14383;BME280;7275;50.328;8.720;2023-01-27T04:22:33;100207.75;;;8.85;51.31
14383;BME280;7275;50.328;8.720;2023-01-27T04:25:01;100215.66;;;8.85;51.08
14383;BME280;7275;50.328;8.720;2023-01-27T04:27:28;100217.41;;;8.86;51.13
14383;BME280;7275;50.328;8.720;2023-01-27T04:29:56;100213.94;;;8.84;51.07
14383;BME280;7275;50.328;8.720;2023-01-27T04:32:23;100218.25;;;8.86;51.51
14383;BME280;7275;50.328;8.720;2023-01-27T04:34:51;100220.88;;;8.86;51.09
14383;BME280;7275;50.328;8.720;2023-01-27T04:37:20;100213.84;;;8.87;51.28
14383;BME280;7275;50.328;8.720;2023-01-27T04:39:48;100215.59;;;8.88;51.39
14383;BME280;7275;50.328;8.720;2023-01-27T04:42:15;100213.84;;;8.89;51.40
14383;BME280;7275;50.328;8.720;2023-01-27T04:44:43;100220.84;;;8.90;51.09
14383;BME280;7275;50.328;8.720;2023-01-27T04:47:10;100218.16;;;8.93;51.42
14383;BME280;7275;50.328;8.720;2023-01-27T04:49:38;100217.31;;;8.91;51.22
14383;BME280;7275;50.328;8.720;2023-01-27T04:52:05;100219.94;;;8.91;51.38
14383;BME280;7275;50.328;8.720;2023-01-27T04:54:34;100221.72;;;8.90;51.43
14383;BME280;7275;50.328;8.720;2023-01-27T04:57:01;100222.59;;;8.91;51.27
14383;BME280;7275;50.328;8.720;2023-01-27T04:59:29;100227.03;;;8.89;51.33
14383;BME280;7275;50.328;8.720;2023-01-27T05:01:57;100218.25;;;8.86;51.58
14383;BME280;7275;50.328;8.720;2023-01-27T05:04:24;100223.56;;;8.85;51.29
14383;BME280;7275;50.328;8.720;2023-01-27T05:06:52;100218.28;;;8.85;51.43
14383;BME280;7275;50.328;8.720;2023-01-27T05:09:20;100223.59;;;8.83;51.66
14383;BME280;7275;50.328;8.720;2023-01-27T05:11:49;100228.03;;;8.81;51.39
14383;BME280;7275;50.328;8.720;2023-01-27T05:14:16;100243.03;;;8.79;51.55
14383;BME280;7275;50.328;8.720;2023-01-27T05:16:44;100243.03;;;8.79;51.74
14383;BME280;7275;50.328;8.720;2023-01-27T05:19:12;100236.88;;;8.79;51.70
14383;BME280;7275;50.328;8.720;2023-01-27T05:21:39;100242.16;;;8.79;51.62
14383;BME280;7275;50.328;8.720;2023-01-27T05:24:09;100243.91;;;8.80;51.37
14383;BME280;7275;50.328;8.720;2023-01-27T05:26:36;100241.19;;;8.83;51.48
14383;BME280;7275;50.328;8.720;2023-01-27T05:29:05;100231.50;;;8.83;51.64
14383;BME280;7275;50.328;8.720;2023-01-27T05:31:32;100242.84;;;8.89;51.59
14383;BME280;7275;50.328;8.720;2023-01-27T05:34:01;100238.41;;;8.91;51.13
14383;BME280;7275;50.328;8.720;2023-01-27T05:36:29;100238.31;;;8.94;51.31
14383;BME280;7275;50.328;8.720;2023-01-27T05:38:57;100243.53;;;8.97;51.19
14383;BME280;7275;50.328;8.720;2023-01-27T05:41:27;100245.25;;;8.98;51.46
14383;BME280;7275;50.328;8.720;2023-01-27T05:43:56;100239.09;;;8.99;51.54
14383;BME280;7275;50.328;8.720;2023-01-27T05:46:26;100252.28;;;8.99;51.56
14383;BME280;7275;50.328;8.720;2023-01-27T05:48:56;100247.00;;;8.99;51.54
14383;BME280;7275;50.328;8.720;2023-01-27T05:51:25;100243.53;;;8.97;51.32
14383;BME280;7275;50.328;8.720;2023-01-27T05:53:52;100241.75;;;8.97;51.75
14383;BME280;7275;50.328;8.720;2023-01-27T05:56:22;100250.53;;;8.98;51.39
14383;BME280;7275;50.328;8.720;2023-01-27T05:58:52;100246.19;;;8.97;51.39
14383;BME280;7275;50.328;8.720;2023-01-27T06:01:21;100242.66;;;8.96;51.55
14383;BME280;7275;50.328;8.720;2023-01-27T06:03:51;100247.06;;;8.96;51.57
14383;BME280;7275;50.328;8.720;2023-01-27T06:06:20;100248.81;;;8.95;51.66
14383;BME280;7275;50.328;8.720;2023-01-27T06:08:48;100255.00;;;8.94;51.67
14383;BME280;7275;50.328;8.720;2023-01-27T06:11:17;100256.78;;;8.94;51.61
14383;BME280;7275;50.328;8.720;2023-01-27T06:13:46;100258.56;;;8.92;51.54
14383;BME280;7275;50.328;8.720;2023-01-27T06:16:15;100258.56;;;8.92;51.50
14383;BME280;7275;50.328;8.720;2023-01-27T06:18:44;100261.25;;;8.90;51.44
14383;BME280;7275;50.328;8.720;2023-01-27T06:21:14;100263.00;;;8.90;51.54
14383;BME280;7275;50.328;8.720;2023-01-27T06:23:42;100267.41;;;8.91;51.84
14383;BME280;7275;50.328;8.720;2023-01-27T06:26:11;100267.41;;;8.91;51.54
14383;BME280;7275;50.328;8.720;2023-01-27T06:28:39;100269.94;;;8.94;51.55
14383;BME280;7275;50.328;8.720;2023-01-27T06:31:07;100268.16;;;8.96;51.73
14383;BME280;7275;50.328;8.720;2023-01-27T06:33:36;100276.03;;;8.97;51.54
14383;BME280;7275;50.328;8.720;2023-01-27T06:36:06;100272.50;;;8.98;51.77
14383;BME280;7275;50.328;8.720;2023-01-27T06:38:35;100268.09;;;8.99;51.81
14383;BME280;7275;50.328;8.720;2023-01-27T06:41:03;100272.50;;;8.98;51.78
14383;BME280;7275;50.328;8.720;2023-01-27T06:43:31;100268.09;;;8.99;51.52
14383;BME280;7275;50.328;8.720;2023-01-27T06:45:59;100274.22;;;8.99;51.61
14383;BME280;7275;50.328;8.720;2023-01-27T06:48:29;100275.97;;;9.00;51.53
14383;BME280;7275;50.328;8.720;2023-01-27T06:50:57;100270.69;;;9.00;51.58
14383;BME280;7275;50.328;8.720;2023-01-27T06:53:24;100271.56;;;9.01;51.59
14383;BME280;7275;50.328;8.720;2023-01-27T06:55:58;100281.19;;;9.02;51.71
14383;BME280;7275;50.328;8.720;2023-01-27T06:58:26;100277.69;;;9.01;51.77
14383;BME280;7275;50.328;8.720;2023-01-27T07:00:54;100282.06;;;9.02;51.54
14383;BME280;7275;50.328;8.720;2023-01-27T07:03:22;100278.56;;;9.02;51.78
14383;BME280;7275;50.328;8.720;2023-01-27T07:05:51;100282.06;;;9.02;51.87
14383;BME280;7275;50.328;8.720;2023-01-27T07:08:19;100283.84;;;9.02;51.93
14383;BME280;7275;50.328;8.720;2023-01-27T07:10:46;100287.38;;;9.01;51.49
14383;BME280;7275;50.328;8.720;2023-01-27T07:13:15;100294.38;;;9.02;51.89
14383;BME280;7275;50.328;8.720;2023-01-27T07:15:43;100288.22;;;9.03;51.77
14383;BME280;7275;50.328;8.720;2023-01-27T07:18:11;100296.06;;;9.06;51.72
14383;BME280;7275;50.328;8.720;2023-01-27T07:20:39;100301.31;;;9.06;51.50
14383;BME280;7275;50.328;8.720;2023-01-27T07:23:08;100295.22;;;9.05;52.00
14383;BME280;7275;50.328;8.720;2023-01-27T07:25:35;100295.31;;;9.01;51.87
14383;BME280;7275;50.328;8.720;2023-01-27T07:28:05;100304.97;;;9.00;52.03
14383;BME280;7275;50.328;8.720;2023-01-27T07:30:34;100303.22;;;8.99;51.94
14383;BME280;7275;50.328;8.720;2023-01-27T07:33:04;100308.50;;;8.99;51.83
14383;BME280;7275;50.328;8.720;2023-01-27T07:35:31;100303.22;;;9.01;51.78
14383;BME280;7275;50.328;8.720;2023-01-27T07:37:59;100301.41;;;9.01;51.83
14383;BME280;7275;50.328;8.720;2023-01-27T07:40:26;100307.56;;;9.02;51.72
14383;BME280;7275;50.328;8.720;2023-01-27T07:42:57;100299.66;;;9.03;51.87
14383;BME280;7275;50.328;8.720;2023-01-27T07:45:24;100304.88;;;9.05;51.72
14383;BME280;7275;50.328;8.720;2023-01-27T07:47:58;100311.00;;;9.07;51.66
14383;BME280;7275;50.328;8.720;2023-01-27T07:50:26;100325.88;;;9.09;52.03
14383;BME280;7275;50.328;8.720;2023-01-27T07:52:53;100315.28;;;9.11;51.70
14383;BME280;7275;50.328;8.720;2023-01-27T07:55:21;100318.75;;;9.13;51.69
14383;BME280;7275;50.328;8.720;2023-01-27T07:57:48;100317.84;;;9.15;51.79
14383;BME280;7275;50.328;8.720;2023-01-27T08:00:19;100325.66;;;9.20;51.95
14383;BME280;7275;50.328;8.720;2023-01-27T08:02:49;100317.69;;;9.21;51.92
14383;BME280;7275;50.328;8.720;2023-01-27T08:05:18;100322.03;;;9.24;51.77
14383;BME280;7275;50.328;8.720;2023-01-27T08:07:46;100326.41;;;9.25;51.51
14383;BME280;7275;50.328;8.720;2023-01-27T08:10:14;100334.25;;;9.28;51.89
14383;BME280;7275;50.328;8.720;2023-01-27T08:12:43;100336.84;;;9.29;51.65
14383;BME280;7275;50.328;8.720;2023-01-27T08:15:11;100335.09;;;9.28;51.68
14383;BME280;7275;50.328;8.720;2023-01-27T08:17:38;100338.53;;;9.33;51.96
14383;BME280;7275;50.328;8.720;2023-01-27T08:20:07;100335.88;;;9.33;51.88
14383;BME280;7275;50.328;8.720;2023-01-27T08:22:37;100343.75;;;9.35;51.93
14383;BME280;7275;50.328;8.720;2023-01-27T08:25:05;100344.59;;;9.37;51.55
14383;BME280;7275;50.328;8.720;2023-01-27T08:27:33;100348.06;;;9.39;51.98
14383;BME280;7275;50.328;8.720;2023-01-27T08:30:00;100348.06;;;9.39;51.84
14383;BME280;7275;50.328;8.720;2023-01-27T08:32:28;100356.91;;;9.38;51.67
14383;BME280;7275;50.328;8.720;2023-01-27T08:34:55;100363.06;;;9.38;51.67
14383;BME280;7275;50.328;8.720;2023-01-27T08:37:23;100361.25;;;9.39;51.56
14383;BME280;7275;50.328;8.720;2023-01-27T08:39:51;100365.66;;;9.40;52.00
14383;BME280;7275;50.328;8.720;2023-01-27T08:42:19;100370.97;;;9.38;51.72
14383;BME280;7275;50.328;8.720;2023-01-27T08:44:46;100356.94;;;9.36;51.94
14383;BME280;7275;50.328;8.720;2023-01-27T08:47:14;100370.06;;;9.39;51.79
14383;BME280;7275;50.328;8.720;2023-01-27T08:49:41;100359.50;;;9.39;52.02
14383;BME280;7275;50.328;8.720;2023-01-27T08:52:09;100373.56;;;9.40;51.89
14383;BME280;7275;50.328;8.720;2023-01-27T08:54:36;100377.94;;;9.41;51.83
14383;BME280;7275;50.328;8.720;2023-01-27T08:57:05;100376.97;;;9.45;51.82
14383;BME280;7275;50.328;8.720;2023-01-27T08:59:33;100379.63;;;9.45;52.02
14383;BME280;7275;50.328;8.720;2023-01-27T09:02:00;100379.53;;;9.48;51.76
14383;BME280;7275;50.328;8.720;2023-01-27T09:04:28;100384.75;;;9.51;52.25
14383;BME280;7275;50.328;8.720;2023-01-27T09:06:56;100382.88;;;9.56;52.11
14383;BME280;7275;50.328;8.720;2023-01-27T09:09:23;100386.34;;;9.59;51.94
14383;BME280;7275;50.328;8.720;2023-01-27T09:11:51;100402.09;;;9.62;51.98
14383;BME280;7275;50.328;8.720;2023-01-27T09:14:20;100401.06;;;9.68;51.75
14383;BME280;7275;50.328;8.720;2023-01-27T09:16:47;100408.88;;;9.74;52.03
14383;BME280;7275;50.328;8.720;2023-01-27T09:19:15;100402.63;;;9.77;51.83
14383;BME280;7275;50.328;8.720;2023-01-27T09:21:42;100408.75;;;9.80;51.92
14383;BME280;7275;50.328;8.720;2023-01-27T09:24:09;100411.28;;;9.83;51.76
14383;BME280;7275;50.328;8.720;2023-01-27T09:26:38;100412.94;;;9.89;51.68
14383;BME280;7275;50.328;8.720;2023-01-27T09:29:06;100411.97;;;9.93;51.83
14383;BME280;7275;50.328;8.720;2023-01-27T09:31:35;100412.75;;;9.96;51.73
14383;BME280;7275;50.328;8.720;2023-01-27T09:34:02;100409.13;;;10.00;51.66
14383;BME280;7275;50.328;8.720;2023-01-27T09:36:32;100407.31;;;10.02;51.69
14383;BME280;7275;50.328;8.720;2023-01-27T09:39:06;100410.84;;;10.01;51.47
14383;BME280;7275;50.328;8.720;2023-01-27T09:41:46;100408.22;;;10.01;51.63
14383;BME280;7275;50.328;8.720;2023-01-27T09:44:40;100410.78;;;10.04;51.81
14383;BME280;7275;50.328;8.720;2023-01-27T09:47:22;100407.22;;;10.07;51.59
14383;BME280;7275;50.328;8.720;2023-01-27T09:50:06;100408.94;;;10.09;51.78
14383;BME280;7275;50.328;8.720;2023-01-27T09:52:49;100408.03;;;10.10;51.73
14383;BME280;7275;50.328;8.720;2023-01-27T09:55:32;100408.88;;;10.12;51.62
14383;BME280;7275;50.328;8.720;2023-01-27T09:58:07;100402.66;;;10.15;51.65
14383;BME280;7275;50.328;8.720;2023-01-27T10:00:46;100395.50;;;10.18;51.80
14383;BME280;7275;50.328;8.720;2023-01-27T10:03:32;100407.72;;;10.24;51.83
14383;BME280;7275;50.328;8.720;2023-01-27T10:09:31;100405.81;;;10.30;51.34
14383;BME280;7275;50.328;8.720;2023-01-27T10:12:15;100393.44;;;10.31;51.56
14383;BME280;7275;50.328;8.720;2023-01-27T10:14:55;100395.97;;;10.35;51.29
14383;BME280;7275;50.328;8.720;2023-01-27T10:17:35;100394.00;;;10.43;51.61
14383;BME280;7275;50.328;8.720;2023-01-27T10:20:18;100394.66;;;10.52;51.64
14383;BME280;7275;50.328;8.720;2023-01-27T10:26:49;100382.97;;;10.60;51.83
14383;BME280;7275;50.328;8.720;2023-01-27T10:29:23;100382.81;;;10.66;51.67
14383;BME280;7275;50.328;8.720;2023-01-27T10:31:55;100378.28;;;10.71;51.52
14383;BME280;7275;50.328;8.720;2023-01-27T10:34:26;100382.53;;;10.77;51.26
14383;BME280;7275;50.328;8.720;2023-01-27T10:37:07;100385.03;;;10.81;51.34
14383;BME280;7275;50.328;8.720;2023-01-27T10:39:44;100386.63;;;10.87;51.58
14383;BME280;7275;50.328;8.720;2023-01-27T10:42:20;100382.09;;;10.92;51.25
14383;BME280;7275;50.328;8.720;2023-01-27T10:45:01;100388.16;;;10.95;51.28
14383;BME280;7275;50.328;8.720;2023-01-27T10:47:44;100396.97;;;10.96;51.16
14383;BME280;7275;50.328;8.720;2023-01-27T10:50:18;100396.97;;;10.96;51.24
14383;BME280;7275;50.328;8.720;2023-01-27T10:52:54;100392.50;;;10.98;51.07
14383;BME280;7275;50.328;8.720;2023-01-27T10:55:26;100395.97;;;11.00;50.94
14383;BME280;7275;50.328;8.720;2023-01-27T10:57:58;100393.28;;;11.03;51.31
14383;BME280;7275;50.328;8.720;2023-01-27T11:00:31;100395.69;;;11.10;51.04
14383;BME280;7275;50.328;8.720;2023-01-27T11:03:24;100389.38;;;11.14;51.04
14383;BME280;7275;50.328;8.720;2023-01-27T11:05:55;100396.31;;;11.20;50.96
14383;BME280;7275;50.328;8.720;2023-01-27T11:08:29;100391.69;;;11.26;51.09
14383;BME280;7275;50.328;8.720;2023-01-27T11:11:01;100395.16;;;11.28;50.60
14383;BME280;7275;50.328;8.720;2023-01-27T11:13:48;100392.56;;;11.27;50.94
14383;BME280;7275;50.328;8.720;2023-01-27T11:16:18;100390.78;;;11.27;50.90
14383;BME280;7275;50.328;8.720;2023-01-27T11:18:52;100388.13;;;11.27;50.91
14383;BME280;7275;50.328;8.720;2023-01-27T11:21:24;100389.00;;;11.28;50.53
14383;BME280;7275;50.328;8.720;2023-01-27T11:23:54;100388.13;;;11.27;50.88
14383;BME280;7275;50.328;8.720;2023-01-27T11:26:28;100389.00;;;11.28;50.56
14383;BME280;7275;50.328;8.720;2023-01-27T11:29:06;100387.31;;;11.25;50.44
14383;BME280;7275;50.328;8.720;2023-01-27T11:31:39;100386.50;;;11.23;50.71
14383;BME280;7275;50.328;8.720;2023-01-27T11:34:15;100398.84;;;11.23;50.80
14383;BME280;7275;50.328;8.720;2023-01-27T11:36:45;100390.91;;;11.23;50.86
14383;BME280;7275;50.328;8.720;2023-01-27T11:39:16;100394.50;;;11.22;50.84
14383;BME280;7275;50.328;8.720;2023-01-27T11:41:46;100388.38;;;11.20;50.68
14383;BME280;7275;50.328;8.720;2023-01-27T11:44:18;100382.28;;;11.16;50.59
14383;BME280;7275;50.328;8.720;2023-01-27T11:46:47;100380.56;;;11.14;50.71
14383;BME280;7275;50.328;8.720;2023-01-27T11:49:17;100381.50;;;11.13;50.68
14383;BME280;7275;50.328;8.720;2023-01-27T11:51:46;100383.34;;;11.11;50.74
14383;BME280;7275;50.328;8.720;2023-01-27T11:54:19;100379.88;;;11.09;50.38
14383;BME280;7275;50.328;8.720;2023-01-27T11:56:49;100374.63;;;11.07;50.40
14383;BME280;7275;50.328;8.720;2023-01-27T11:59:18;100370.16;;;11.08;50.63
14383;BME280;7275;50.328;8.720;2023-01-27T12:01:50;100370.16;;;11.08;50.42
14383;BME280;7275;50.328;8.720;2023-01-27T12:04:23;100374.56;;;11.09;50.74
14383;BME280;7275;50.328;8.720;2023-01-27T12:06:53;100380.69;;;11.11;50.84
14383;BME280;7275;50.328;8.720;2023-01-27T12:09:35;100378.84;;;11.13;50.54
14383;BME280;7275;50.328;8.720;2023-01-27T12:12:13;100371.75;;;11.15;50.53
14383;BME280;7275;50.328;8.720;2023-01-27T12:14:47;100371.50;;;11.22;50.79
14383;BME280;7275;50.328;8.720;2023-01-27T12:17:20;100360.59;;;11.33;50.78
14383;BME280;7275;50.328;8.720;2023-01-27T12:19:51;100357.75;;;11.41;50.42
14383;BME280;7275;50.328;8.720;2023-01-27T12:22:25;100361.09;;;11.47;50.59
14383;BME280;7275;50.328;8.720;2023-01-27T12:24:57;100351.25;;;11.51;50.33
14383;BME280;7275;50.328;8.720;2023-01-27T12:27:29;100358.19;;;11.55;50.08
14383;BME280;7275;50.328;8.720;2023-01-27T12:29:59;100349.28;;;11.57;50.07
14383;BME280;7275;50.328;8.720;2023-01-27T12:32:35;100351.81;;;11.62;49.88
14383;BME280;7275;50.328;8.720;2023-01-27T12:35:05;100353.44;;;11.66;50.18
14383;BME280;7275;50.328;8.720;2023-01-27T12:37:36;100356.69;;;11.75;50.11
14383;BME280;7275;50.328;8.720;2023-01-27T12:40:14;100352.94;;;11.82;49.96
14383;BME280;7275;50.328;8.720;2023-01-27T12:42:48;100339.78;;;11.79;49.63
14383;BME280;7275;50.328;8.720;2023-01-27T12:45:25;100354.84;;;11.77;49.80
14383;BME280;7275;50.328;8.720;2023-01-27T12:48:00;100344.38;;;11.74;49.64
14383;BME280;7275;50.328;8.720;2023-01-27T12:50:33;100348.06;;;11.69;49.64
14383;BME280;7275;50.328;8.720;2023-01-27T12:53:08;100345.53;;;11.64;49.66
14383;BME280;7275;50.328;8.720;2023-01-27T12:55:41;100343.88;;;11.62;49.71
14383;BME280;7275;50.328;8.720;2023-01-27T12:58:35;100344.91;;;11.56;49.52
14383;BME280;7275;50.328;8.720;2023-01-27T13:01:06;100346.72;;;11.54;49.66
14383;BME280;7275;50.328;8.720;2023-01-27T13:03:38;100344.09;;;11.54;49.74
14383;BME280;7275;50.328;8.720;2023-01-27T13:06:07;100340.63;;;11.52;49.66
14383;BME280;7275;50.328;8.720;2023-01-27T13:08:37;100355.75;;;11.49;49.43
14383;BME280;7275;50.328;8.720;2023-01-27T13:11:07;100346.97;;;11.47;49.47
14383;BME280;7275;50.328;8.720;2023-01-27T13:13:34;100354.09;;;11.45;49.31
14383;BME280;7275;50.328;8.720;2023-01-27T13:16:11;100352.47;;;11.41;49.38
14383;BME280;7275;50.328;8.720;2023-01-27T13:18:41;100357.94;;;11.35;49.49
14383;BME280;7275;50.328;8.720;2023-01-27T13:21:20;100365.13;;;11.30;49.66
14383;BME280;7275;50.328;8.720;2023-01-27T13:23:50;100359.97;;;11.25;49.58
14383;BME280;7275;50.328;8.720;2023-01-27T13:26:24;100366.22;;;11.22;49.79
14383;BME280;7275;50.328;8.720;2023-01-27T13:28:56;100364.50;;;11.21;50.03
14383;BME280;7275;50.328;8.720;2023-01-27T13:31:35;100367.16;;;11.21;49.57
14383;BME280;7275;50.328;8.720;2023-01-27T13:34:14;100368.88;;;11.22;49.75